Time;durP1;ratioP1;P1;durP2;ratioP2;P2;SDS_P1;SDS_P2;PMS_P1;PMS_P2;Temp;Humidity;BMP_temperature;BMP_pressure;BME280_temperature;BME280_humidity;BME280_pressure;Samples;Min_cycle;Max_cycle;Signal;HPM_P1;HPM_P2
2024/01/06 00:01:31;;;;;;;14.45;7.93;;;2.10;99.90;;;;;;4865694;29;20488;-77
2024/01/06 00:03:57;;;;;;;13.48;7.90;;;2.10;99.90;;;;;;4865584;29;20053;-77
2024/01/06 00:06:24;;;;;;;13.30;8.55;;;2.10;99.90;;;;;;4865653;29;20053;-77
2024/01/06 00:08:53;;;;;;;14.15;8.68;;;2.10;99.90;;;;;;4865669;29;20488;-77
2024/01/06 00:11:20;;;;;;;14.25;8.45;;;2.10;99.90;;;;;;4865478;29;20056;-78
2024/01/06 00:13:46;;;;;;;15.88;9.10;;;2.10;99.90;;;;;;4865579;29;20515;-77
2024/01/06 00:16:12;;;;;;;17.60;7.60;;;2.00;99.90;;;;;;4865568;29;20057;-77
2024/01/06 00:18:40;;;;;;;16.02;7.53;;;2.00;99.90;;;;;;4865418;29;20372;-78
2024/01/06 00:21:06;;;;;;;14.27;7.22;;;2.00;99.90;;;;;;4865434;29;20506;-78
2024/01/06 00:23:37;;;;;;;13.90;6.97;;;2.00;99.90;;;;;;4865705;29;20045;-78
2024/01/06 00:26:04;;;;;;;8.98;5.05;;;2.00;99.90;;;;;;4865475;29;20473;-77
2024/01/06 00:28:30;;;;;;;13.35;7.18;;;2.10;99.90;;;;;;4865535;29;20079;-77
2024/01/06 00:30:55;;;;;;;10.20;6.50;;;2.10;99.90;;;;;;4865289;29;20477;-77
2024/01/06 00:33:21;;;;;;;14.18;7.22;;;2.10;99.90;;;;;;4863006;29;20060;-78
2024/01/06 00:35:47;;;;;;;11.77;5.75;;;2.10;99.90;;;;;;4865253;29;20045;-77
2024/01/06 00:38:12;;;;;;;12.50;6.32;;;2.10;99.90;;;;;;4865239;29;20045;-77
2024/01/06 00:40:38;;;;;;;13.15;5.90;;;2.10;99.90;;;;;;4865135;29;20044;-77
2024/01/06 00:43:04;;;;;;;12.45;6.07;;;2.10;99.90;;;;;;4864963;29;20442;-77
2024/01/06 00:45:30;;;;;;;12.57;6.75;;;2.20;99.90;;;;;;4865264;29;20033;-78
2024/01/06 00:47:56;;;;;;;12.30;6.63;;;2.20;99.90;;;;;;4865057;29;20057;-77
2024/01/06 00:50:22;;;;;;;11.70;6.18;;;2.20;99.90;;;;;;4864912;29;20041;-77
2024/01/06 00:52:47;;;;;;;12.98;5.82;;;2.20;99.90;;;;;;4881314;29;20045;-77
2024/01/06 00:55:13;;;;;;;10.90;5.63;;;2.20;99.90;;;;;;4864981;29;20053;-78
2024/01/06 00:57:39;;;;;;;14.27;6.78;;;2.30;99.90;;;;;;4881916;29;20056;-77
2024/01/06 01:00:05;;;;;;;12.27;6.57;;;2.30;99.90;;;;;;4863833;29;20057;-77
2024/01/06 01:02:31;;;;;;;14.70;8.20;;;2.30;99.90;;;;;;4864886;29;20053;-77
2024/01/06 01:04:57;;;;;;;17.55;8.88;;;2.30;99.90;;;;;;4864330;29;20064;-77
2024/01/06 01:07:24;;;;;;;16.73;8.73;;;2.30;99.90;;;;;;4864743;29;20053;-77
2024/01/06 01:09:49;;;;;;;16.98;7.72;;;2.40;99.90;;;;;;4864575;29;20073;-78
2024/01/06 01:12:15;;;;;;;23.60;9.90;;;2.30;99.90;;;;;;4864482;29;20144;-77
2024/01/06 01:14:41;;;;;;;17.92;8.32;;;2.40;99.90;;;;;;4864469;29;20049;-77
2024/01/06 01:17:06;;;;;;;18.63;9.40;;;2.40;99.90;;;;;;4864609;29;20037;-77
2024/01/06 01:19:32;;;;;;;24.33;9.40;;;2.40;99.90;;;;;;4864445;29;20449;-77
2024/01/06 01:21:57;;;;;;;17.42;9.80;;;2.40;99.90;;;;;;4864691;29;20117;-77
2024/01/06 01:24:23;;;;;;;18.25;9.13;;;2.40;99.90;;;;;;4864472;29;20055;-77
2024/01/06 01:26:49;;;;;;;17.15;8.52;;;2.40;99.90;;;;;;4864500;29;20049;-77
2024/01/06 01:29:16;;;;;;;22.90;8.70;;;2.40;99.90;;;;;;4864506;29;20057;-77
2024/01/06 01:31:44;;;;;;;20.98;8.48;;;2.50;99.90;;;;;;4864439;29;20044;-77
2024/01/06 01:34:13;;;;;;;21.20;10.00;;;2.40;99.90;;;;;;4864493;29;20131;-77
2024/01/06 01:36:40;;;;;;;23.30;9.55;;;2.40;99.90;;;;;;4864505;29;20053;-77
2024/01/06 01:39:05;;;;;;;19.23;9.25;;;2.40;99.90;;;;;;4863962;29;20104;-78
2024/01/06 01:41:31;;;;;;;23.35;8.27;;;2.40;99.90;;;;;;4864026;29;20048;-77
2024/01/06 01:43:59;;;;;;;14.93;7.47;;;2.50;99.90;;;;;;4863574;29;20512;-77
2024/01/06 01:46:29;;;;;;;14.45;7.68;;;2.50;99.90;;;;;;4863950;29;20060;-78
2024/01/06 01:48:55;;;;;;;17.65;8.40;;;2.50;99.90;;;;;;4863905;29;20420;-77
2024/01/06 01:51:21;;;;;;;17.50;7.05;;;2.50;99.90;;;;;;4863998;29;20552;-77
2024/01/06 01:53:47;;;;;;;18.00;8.30;;;2.50;99.90;;;;;;4863762;29;20076;-78
2024/01/06 01:56:13;;;;;;;15.40;8.07;;;2.50;99.90;;;;;;4863734;29;20109;-78
2024/01/06 01:58:40;;;;;;;16.10;9.02;;;2.50;99.90;;;;;;4864030;29;20052;-78
2024/01/06 02:01:07;;;;;;;16.90;8.32;;;2.50;99.90;;;;;;4880442;29;20056;-77
2024/01/06 02:03:33;;;;;;;14.35;8.10;;;2.50;99.90;;;;;;4880145;29;20060;-77
2024/01/06 02:06:01;;;;;;;15.43;8.73;;;2.50;99.90;;;;;;4863792;29;20053;-77
2024/01/06 02:08:27;;;;;;;15.63;7.22;;;2.50;99.90;;;;;;4863541;29;20049;-78
2024/01/06 02:10:56;;;;;;;16.63;7.32;;;2.50;99.90;;;;;;4863544;29;20049;-78
2024/01/06 02:13:23;;;;;;;16.63;7.38;;;2.50;99.90;;;;;;4863585;29;20496;-78
2024/01/06 02:15:49;;;;;;;18.05;7.22;;;2.50;99.90;;;;;;4863574;29;20048;-77
2024/01/06 02:18:15;;;;;;;15.75;6.47;;;2.50;99.90;;;;;;4863538;29;20060;-78
2024/01/06 02:20:47;;;;;;;17.02;7.15;;;2.50;99.90;;;;;;4863456;29;20052;-78
2024/01/06 02:23:13;;;;;;;20.88;8.15;;;2.50;99.90;;;;;;4863616;29;20127;-78
2024/01/06 02:25:38;;;;;;;17.17;7.15;;;2.50;99.90;;;;;;4863420;29;20205;-77
2024/01/06 02:28:04;;;;;;;13.07;6.68;;;2.50;99.90;;;;;;4863441;29;20052;-78
2024/01/06 02:30:30;;;;;;;13.70;7.20;;;2.50;99.90;;;;;;4863434;29;20049;-78
2024/01/06 02:32:55;;;;;;;13.93;5.32;;;2.50;99.90;;;;;;4863193;29;20060;-77
2024/01/06 02:35:21;;;;;;;16.55;7.25;;;2.50;99.90;;;;;;4863430;29;20049;-78
2024/01/06 02:37:46;;;;;;;11.23;6.80;;;2.50;99.90;;;;;;4863258;29;20488;-77
2024/01/06 02:40:18;;;;;;;12.93;5.75;;;2.50;99.90;;;;;;4879906;29;20128;-78
2024/01/06 02:42:44;;;;;;;14.20;5.95;;;2.50;99.90;;;;;;4863536;29;20111;-78
2024/01/06 02:45:09;;;;;;;12.80;7.85;;;2.50;99.90;;;;;;4863246;29;20165;-78
2024/01/06 02:47:35;;;;;;;18.83;6.93;;;2.40;99.90;;;;;;4863263;29;20059;-78
2024/01/06 02:50:01;;;;;;;15.55;6.72;;;2.50;99.90;;;;;;4863052;29;20049;-78
2024/01/06 02:52:26;;;;;;;13.02;6.25;;;2.50;99.90;;;;;;4863135;29;20045;-78
2024/01/06 02:54:52;;;;;;;14.30;7.63;;;2.50;99.90;;;;;;4863133;29;20049;-78
2024/01/06 02:57:18;;;;;;;14.88;6.10;;;2.50;99.90;;;;;;4865547;29;20140;-77
2024/01/06 02:59:44;;;;;;;12.98;6.55;;;2.50;99.90;;;;;;4867074;29;20493;-78
2024/01/06 03:02:10;;;;;;;12.70;8.05;;;2.50;99.90;;;;;;4883350;29;20043;-77
2024/01/06 03:04:36;;;;;;;18.02;7.07;;;2.50;99.90;;;;;;4866559;29;20060;-77
2024/01/06 03:07:02;;;;;;;9.38;5.38;;;2.50;99.90;;;;;;4866960;29;20056;-77
2024/01/06 03:09:27;;;;;;;13.13;5.55;;;2.50;99.90;;;;;;4866897;29;20116;-77
2024/01/06 03:11:53;;;;;;;13.48;6.72;;;2.50;99.90;;;;;;4866769;29;20048;-77
2024/01/06 03:14:18;;;;;;;16.27;6.57;;;2.50;99.90;;;;;;4866926;29;20052;-77
2024/01/06 03:16:44;;;;;;;21.70;6.57;;;2.50;99.90;;;;;;4866738;29;20563;-77
2024/01/06 03:19:10;;;;;;;16.23;7.32;;;2.50;99.90;;;;;;4866530;29;20053;-78
2024/01/06 03:21:35;;;;;;;14.57;6.75;;;2.50;99.90;;;;;;4866528;29;20049;-77
2024/01/06 03:24:01;;;;;;;14.40;6.13;;;2.50;99.90;;;;;;4866698;29;20393;-77
2024/01/06 03:26:26;;;;;;;12.88;6.65;;;2.50;99.90;;;;;;4883151;29;20077;-77
2024/01/06 03:28:54;;;;;;;14.60;6.97;;;2.60;99.90;;;;;;4866427;29;20037;-78
2024/01/06 03:31:22;;;;;;;15.65;6.57;;;2.60;99.90;;;;;;4882964;29;20151;-78
2024/01/06 03:33:48;;;;;;;15.68;6.97;;;2.50;99.90;;;;;;4866471;29;20156;-78
2024/01/06 03:36:15;;;;;;;14.85;6.53;;;2.50;99.90;;;;;;4866244;29;20139;-78
2024/01/06 03:38:41;;;;;;;15.60;7.25;;;2.60;99.90;;;;;;4866226;29;20041;-77
2024/01/06 03:41:10;;;;;;;15.85;6.90;;;2.60;99.90;;;;;;4866188;29;20060;-78
2024/01/06 03:43:35;;;;;;;16.00;7.13;;;2.60;99.90;;;;;;4866159;29;20057;-78
2024/01/06 03:46:01;;;;;;;19.88;7.70;;;2.60;99.90;;;;;;4865963;29;20047;-78
2024/01/06 03:48:26;;;;;;;14.48;7.82;;;2.70;99.90;;;;;;4866083;29;20065;-78
2024/01/06 03:50:52;;;;;;;22.20;7.20;;;2.60;99.90;;;;;;4866057;29;20076;-78
2024/01/06 03:53:18;;;;;;;13.85;5.93;;;2.60;99.90;;;;;;4866248;29;20059;-78
2024/01/06 03:55:43;;;;;;;17.33;6.88;;;2.70;99.90;;;;;;4866092;29;20064;-78
2024/01/06 03:58:09;;;;;;;12.82;7.10;;;2.60;99.90;;;;;;4866300;29;20084;-78
2024/01/06 04:00:34;;;;;;;17.70;7.32;;;2.70;99.90;;;;;;4865797;29;20464;-78
2024/01/06 04:03:00;;;;;;;12.63;5.68;;;2.70;99.90;;;;;;4865753;29;20053;-77
2024/01/06 04:05:26;;;;;;;17.77;6.72;;;2.60;99.90;;;;;;4865630;29;20152;-77
2024/01/06 04:07:51;;;;;;;14.95;6.30;;;2.60;99.90;;;;;;4865359;29;20060;-77
2024/01/06 04:10:17;;;;;;;15.30;7.65;;;2.60;99.90;;;;;;4865778;29;20096;-77
2024/01/06 04:12:43;;;;;;;18.33;6.68;;;2.60;99.90;;;;;;4865682;29;20049;-77
2024/01/06 04:15:11;;;;;;;18.95;9.18;;;2.60;99.90;;;;;;4865762;29;20085;-77
2024/01/06 04:17:36;;;;;;;16.30;7.05;;;2.60;99.90;;;;;;4865389;29;20480;-77
2024/01/06 04:20:04;;;;;;;13.60;6.97;;;2.60;99.90;;;;;;4865320;29;20496;-77
2024/01/06 04:22:29;;;;;;;13.02;7.43;;;2.60;99.90;;;;;;4865267;29;20121;-77
2024/01/06 04:24:55;;;;;;;11.73;7.05;;;2.70;99.90;;;;;;4865521;29;20480;-77
2024/01/06 04:27:20;;;;;;;16.77;6.10;;;2.60;99.90;;;;;;4865385;29;20048;-77
2024/01/06 04:29:46;;;;;;;14.15;6.78;;;2.60;99.90;;;;;;4865164;29;20048;-77
2024/01/06 04:32:12;;;;;;;13.93;6.63;;;2.70;99.90;;;;;;4865530;29;20049;-77
2024/01/06 04:34:37;;;;;;;16.98;6.85;;;2.70;99.90;;;;;;4865258;29;20389;-77
2024/01/06 04:37:03;;;;;;;11.23;6.03;;;2.70;99.90;;;;;;4865529;29;20057;-77
2024/01/06 04:39:29;;;;;;;23.75;8.25;;;2.70;99.90;;;;;;4865213;29;20049;-77
2024/01/06 04:41:55;;;;;;;14.50;6.45;;;2.70;99.90;;;;;;4865211;29;20059;-77
2024/01/06 04:44:24;;;;;;;13.07;6.38;;;2.70;99.90;;;;;;4864951;29;20041;-77
2024/01/06 04:46:49;;;;;;;13.63;6.80;;;2.70;99.90;;;;;;4864795;29;20421;-77
2024/01/06 04:49:15;;;;;;;15.68;7.40;;;2.70;99.90;;;;;;4864942;29;20049;-77
2024/01/06 04:51:40;;;;;;;13.63;6.78;;;2.70;99.90;;;;;;4865161;29;20052;-77
2024/01/06 04:54:06;;;;;;;16.40;6.97;;;2.70;99.90;;;;;;4864957;29;20591;-77
2024/01/06 04:56:31;;;;;;;13.15;5.88;;;2.80;99.90;;;;;;4865137;29;20049;-77
2024/01/06 04:58:57;;;;;;;18.95;7.03;;;2.80;99.90;;;;;;4864759;29;20449;-77
2024/01/06 05:01:24;;;;;;;19.35;6.55;;;2.80;99.90;;;;;;4864513;29;20101;-77
2024/01/06 05:03:49;;;;;;;16.13;6.78;;;2.70;99.90;;;;;;4864485;29;20057;-77
2024/01/06 05:06:15;;;;;;;12.93;6.45;;;2.80;99.90;;;;;;4864711;29;20167;-77
2024/01/06 05:08:44;;;;;;;17.45;6.53;;;2.70;99.90;;;;;;4864728;29;20080;-77
2024/01/06 05:11:10;;;;;;;11.98;7.03;;;2.80;99.90;;;;;;4864607;29;20131;-77
2024/01/06 05:13:37;;;;;;;12.90;6.47;;;2.80;99.90;;;;;;4864706;29;20404;-77
2024/01/06 05:16:02;;;;;;;15.07;6.65;;;2.70;99.90;;;;;;4864715;29;20076;-77
2024/01/06 05:18:28;;;;;;;13.18;6.03;;;2.80;99.90;;;;;;4881193;29;20527;-77
2024/01/06 05:20:54;;;;;;;16.38;6.68;;;2.80;99.90;;;;;;4880668;29;20049;-77
2024/01/06 05:23:20;;;;;;;15.00;6.47;;;2.80;99.90;;;;;;4881177;29;20053;-77
2024/01/06 05:25:48;;;;;;;16.17;7.07;;;2.80;99.90;;;;;;4864695;29;20120;-77
2024/01/06 05:28:14;;;;;;;13.85;7.05;;;2.80;99.90;;;;;;4864463;29;20079;-77
2024/01/06 05:30:39;;;;;;;12.48;7.15;;;2.80;99.90;;;;;;4864367;29;20400;-77
2024/01/06 05:33:08;;;;;;;14.27;7.10;;;2.80;99.90;;;;;;4864497;29;20057;-77
2024/01/06 05:35:33;;;;;;;15.55;7.88;;;2.80;99.90;;;;;;4864276;29;20057;-77
2024/01/06 05:38:00;;;;;;;16.42;6.93;;;2.80;99.90;;;;;;4864118;29;20064;-77
2024/01/06 05:40:25;;;;;;;12.02;5.63;;;2.80;99.90;;;;;;4864545;29;20060;-77
2024/01/06 05:42:55;;;;;;;15.80;7.63;;;2.80;99.90;;;;;;4864258;29;20445;-77
2024/01/06 05:45:21;;;;;;;11.35;6.13;;;2.80;99.90;;;;;;4864275;29;20128;-77
2024/01/06 05:47:46;;;;;;;17.80;7.25;;;2.80;99.90;;;;;;4864014;29;20056;-77
2024/01/06 05:50:16;;;;;;;11.00;6.60;;;2.80;99.90;;;;;;4864181;29;20044;-77
2024/01/06 05:52:41;;;;;;;15.70;7.07;;;2.80;99.90;;;;;;4863946;29;20075;-77
2024/01/06 05:55:10;;;;;;;14.63;7.22;;;2.80;99.90;;;;;;4863760;29;20107;-77
2024/01/06 05:57:35;;;;;;;18.55;7.22;;;2.90;99.90;;;;;;4863979;29;20136;-77
2024/01/06 06:00:01;;;;;;;10.32;6.47;;;2.90;99.90;;;;;;4863825;29;20056;-77
2024/01/06 06:02:27;;;;;;;12.43;7.05;;;2.90;99.90;;;;;;4863735;29;20052;-77
2024/01/06 06:04:53;;;;;;;12.60;7.03;;;2.90;99.90;;;;;;4863583;29;20053;-77
2024/01/06 06:07:20;;;;;;;12.35;6.85;;;2.90;99.90;;;;;;4863632;29;20063;-77
2024/01/06 06:09:49;;;;;;;11.60;5.75;;;2.90;99.90;;;;;;4863730;29;20075;-77
2024/01/06 06:12:14;;;;;;;15.85;6.43;;;2.90;99.90;;;;;;4863761;29;20049;-77
2024/01/06 06:14:40;;;;;;;11.93;6.65;;;2.90;99.90;;;;;;4863594;29;20053;-77
2024/01/06 06:17:06;;;;;;;13.45;6.53;;;2.90;99.90;;;;;;4863561;29;20096;-77
2024/01/06 06:19:32;;;;;;;12.95;6.97;;;2.90;99.90;;;;;;4863787;29;20096;-77
2024/01/06 06:22:00;;;;;;;13.15;6.72;;;2.90;99.90;;;;;;4863494;29;20105;-77
2024/01/06 06:24:26;;;;;;;12.50;6.78;;;2.90;99.90;;;;;;4863505;29;20056;-77
2024/01/06 06:26:51;;;;;;;13.30;7.63;;;2.90;99.90;;;;;;4863378;29;20051;-77
2024/01/06 06:29:17;;;;;;;13.38;7.05;;;2.90;99.90;;;;;;4863392;29;20045;-77
2024/01/06 06:31:46;;;;;;;12.60;6.75;;;2.90;99.90;;;;;;4862600;29;20093;-77
2024/01/06 06:34:12;;;;;;;17.52;7.32;;;2.80;99.90;;;;;;4863265;29;20081;-77
2024/01/06 06:36:38;;;;;;;12.77;8.20;;;2.90;99.90;;;;;;4863429;29;20480;-77
2024/01/06 06:39:04;;;;;;;16.02;8.13;;;2.90;99.90;;;;;;4863220;29;20039;-77
2024/01/06 06:41:30;;;;;;;12.15;7.07;;;2.90;99.90;;;;;;4863088;29;20057;-77
2024/01/06 06:43:57;;;;;;;13.57;6.10;;;2.90;99.90;;;;;;4863220;29;20064;-77
2024/01/06 06:46:23;;;;;;;13.30;7.28;;;2.90;99.90;;;;;;4863398;29;20056;-77
2024/01/06 06:48:50;;;;;;;14.52;7.95;;;2.90;99.90;;;;;;4863168;29;20045;-77
2024/01/06 06:51:16;;;;;;;13.65;7.85;;;2.90;99.90;;;;;;4863249;29;20116;-77
2024/01/06 06:53:44;;;;;;;14.32;6.88;;;2.90;99.90;;;;;;4863244;29;20049;-77
2024/01/06 06:56:10;;;;;;;19.40;7.22;;;2.90;99.90;;;;;;4863245;29;20412;-77
2024/01/06 06:58:36;;;;;;;12.13;6.72;;;2.90;99.90;;;;;;4863015;29;20124;-77
2024/01/06 07:01:01;;;;;;;11.45;6.40;;;2.90;99.90;;;;;;4862873;29;20128;-76
2024/01/06 07:03:27;;;;;;;13.82;6.55;;;2.90;99.90;;;;;;4862948;29;20057;-77
2024/01/06 07:05:55;;;;;;;11.18;6.38;;;2.90;99.90;;;;;;4862952;29;20060;-77
2024/01/06 07:08:21;;;;;;;11.45;5.80;;;2.90;99.90;;;;;;4862940;29;20084;-77
2024/01/06 07:10:47;;;;;;;13.10;6.63;;;2.90;99.90;;;;;;4862967;29;20076;-77
2024/01/06 07:13:13;;;;;;;11.88;6.78;;;2.90;99.90;;;;;;4879101;29;20121;-77
2024/01/06 07:15:38;;;;;;;14.65;6.63;;;2.90;99.90;;;;;;4863011;29;20111;-77
2024/01/06 07:18:04;;;;;;;12.65;7.30;;;2.90;99.90;;;;;;4863103;29;20057;-77
2024/01/06 07:20:30;;;;;;;15.85;7.32;;;2.90;99.90;;;;;;4879307;29;20127;-77
2024/01/06 07:22:55;;;;;;;25.17;8.10;;;2.90;99.90;;;;;;4879641;29;20100;-77
2024/01/06 07:25:21;;;;;;;12.85;6.65;;;2.90;99.90;;;;;;4862832;29;20110;-77
2024/01/06 07:27:46;;;;;;;14.27;6.53;;;2.90;99.90;;;;;;4862493;29;20049;-77
2024/01/06 07:30:16;;;;;;;12.68;7.20;;;2.90;99.90;;;;;;4863135;29;20128;-77
2024/01/06 07:32:42;;;;;;;13.40;7.38;;;2.90;99.90;;;;;;4862756;29;20053;-77
2024/01/06 07:35:08;;;;;;;13.43;7.32;;;2.90;99.90;;;;;;4862590;29;20523;-77
2024/01/06 07:37:36;;;;;;;11.77;6.32;;;2.90;99.90;;;;;;4862724;29;20045;-77
2024/01/06 07:40:02;;;;;;;22.95;7.72;;;2.90;99.90;;;;;;4862677;29;20053;-77
2024/01/06 07:42:28;;;;;;;12.93;7.70;;;2.90;99.90;;;;;;4863301;29;20052;-77
2024/01/06 07:44:53;;;;;;;14.40;7.22;;;2.90;99.90;;;;;;4866413;29;20041;-77
2024/01/06 07:47:19;;;;;;;12.13;6.95;;;2.90;99.90;;;;;;4866345;29;20101;-78
2024/01/06 07:49:46;;;;;;;13.15;6.95;;;2.90;99.90;;;;;;4865942;29;20121;-77
2024/01/06 07:52:13;;;;;;;14.38;7.18;;;2.90;99.90;;;;;;4865711;29;20049;-77
2024/01/06 07:54:39;;;;;;;16.00;7.32;;;2.80;99.90;;;;;;4865875;29;20053;-77
2024/01/06 07:57:04;;;;;;;14.00;6.30;;;2.90;99.90;;;;;;4865905;29;20057;-77
2024/01/06 07:59:30;;;;;;;13.00;7.20;;;2.90;99.90;;;;;;4866086;29;20132;-77
2024/01/06 08:01:56;;;;;;;11.50;6.05;;;2.90;99.90;;;;;;4865534;29;20061;-78
2024/01/06 08:04:22;;;;;;;13.32;6.78;;;2.90;99.90;;;;;;4865580;29;20064;-78
2024/01/06 08:06:48;;;;;;;11.55;7.00;;;2.90;99.90;;;;;;4865618;29;20065;-77
2024/01/06 08:09:13;;;;;;;14.13;8.65;;;2.90;99.90;;;;;;4865676;29;20044;-78
2024/01/06 08:11:45;;;;;;;16.52;8.52;;;2.90;99.90;;;;;;4865639;29;20097;-77
2024/01/06 08:14:11;;;;;;;13.57;8.23;;;2.90;99.90;;;;;;4865901;29;20049;-77
2024/01/06 08:16:37;;;;;;;17.65;7.68;;;2.90;99.90;;;;;;4865641;29;20485;-77
2024/01/06 08:19:05;;;;;;;13.32;7.70;;;2.90;99.90;;;;;;4865578;29;20041;-77
2024/01/06 08:21:31;;;;;;;14.10;7.63;;;2.90;99.90;;;;;;4865269;29;20123;-77
2024/01/06 08:23:57;;;;;;;14.85;7.82;;;2.90;99.90;;;;;;4865590;29;20144;-77
2024/01/06 08:26:22;;;;;;;17.45;7.90;;;2.90;99.90;;;;;;4865444;29;20053;-77
2024/01/06 08:28:48;;;;;;;13.40;8.27;;;2.90;99.90;;;;;;4865704;29;20053;-78
2024/01/06 08:31:13;;;;;;;14.77;8.73;;;2.90;99.90;;;;;;4865329;29;20052;-77
2024/01/06 08:33:39;;;;;;;18.73;8.13;;;2.90;99.90;;;;;;4865086;29;20438;-77
2024/01/06 08:36:05;;;;;;;16.67;8.65;;;2.90;99.90;;;;;;4858911;29;20129;-78
2024/01/06 08:38:31;;;;;;;13.73;7.55;;;2.90;99.90;;;;;;4854420;29;20054;-76
2024/01/06 08:40:57;;;;;;;17.80;7.30;;;2.90;99.90;;;;;;4846148;29;20140;-77
2024/01/06 08:43:22;;;;;;;15.98;7.72;;;2.90;99.90;;;;;;4846176;29;20140;-76
2024/01/06 08:45:48;;;;;;;15.15;7.72;;;2.90;99.90;;;;;;4846110;29;20044;-76
2024/01/06 08:48:15;;;;;;;16.17;9.32;;;2.90;99.90;;;;;;4846050;29;20098;-78
2024/01/06 08:50:40;;;;;;;12.02;6.88;;;2.80;99.90;;;;;;4845672;29;20574;-79
2024/01/06 08:53:06;;;;;;;20.50;10.70;;;2.90;99.90;;;;;;4862135;29;20085;-77
2024/01/06 08:55:31;;;;;;;14.20;7.53;;;2.90;99.90;;;;;;4845458;29;20045;-76
2024/01/06 08:57:57;;;;;;;14.15;7.28;;;2.80;99.90;;;;;;4846200;29;20057;-76
2024/01/06 09:00:23;;;;;;;14.02;8.38;;;2.80;99.90;;;;;;4846303;29;20070;-76
2024/01/06 09:02:49;;;;;;;15.98;9.68;;;2.80;99.90;;;;;;4845906;29;20101;-77
2024/01/06 09:05:14;;;;;;;20.88;8.02;;;2.80;99.90;;;;;;4845815;29;20089;-76
2024/01/06 09:07:40;;;;;;;16.05;7.57;;;2.80;99.90;;;;;;4862672;29;20103;-76
2024/01/06 09:10:07;;;;;;;16.00;7.93;;;2.90;99.90;;;;;;4846154;29;20566;-77
2024/01/06 09:12:32;;;;;;;14.65;8.23;;;2.80;99.90;;;;;;4845944;29;20133;-79
2024/01/06 09:14:58;;;;;;;15.80;6.90;;;2.80;99.90;;;;;;4845764;29;20140;-78
2024/01/06 09:17:23;;;;;;;18.95;8.13;;;2.80;99.90;;;;;;4845504;29;20046;-79
2024/01/06 09:19:49;;;;;;;17.15;7.97;;;2.80;99.90;;;;;;4845951;29;20049;-79
2024/01/06 09:22:15;;;;;;;13.95;8.30;;;2.80;99.90;;;;;;4862397;29;20053;-79
2024/01/06 09:24:40;;;;;;;19.55;8.35;;;2.90;99.90;;;;;;4845525;29;20128;-79
2024/01/06 09:27:06;;;;;;;27.58;9.85;;;2.90;99.90;;;;;;4845546;29;20064;-79
2024/01/06 09:29:31;;;;;;;15.07;8.23;;;2.90;99.90;;;;;;4845349;29;20049;-79
2024/01/06 09:31:57;;;;;;;16.45;8.43;;;2.90;99.90;;;;;;4862047;29;20561;-79
2024/01/06 09:34:23;;;;;;;16.30;9.07;;;2.90;99.90;;;;;;4862271;29;20417;-76
2024/01/06 09:36:48;;;;;;;14.48;7.70;;;2.80;99.90;;;;;;4845346;29;20379;-78
2024/01/06 09:39:14;;;;;;;14.52;8.00;;;2.80;99.90;;;;;;4845291;29;20057;-80
2024/01/06 09:41:39;;;;;;;17.88;9.20;;;2.90;99.90;;;;;;4845244;29;20050;-79
2024/01/06 09:44:06;;;;;;;16.38;9.05;;;2.80;99.90;;;;;;4845423;29;20382;-79
2024/01/06 09:46:32;;;;;;;18.60;8.75;;;2.80;99.90;;;;;;4845415;29;20045;-79
2024/01/06 09:48:58;;;;;;;14.40;8.38;;;2.80;99.90;;;;;;4861807;29;20053;-79
2024/01/06 09:51:26;;;;;;;17.15;8.35;;;2.80;99.90;;;;;;4845379;29;20053;-79
2024/01/06 09:54:00;;;;;;;14.73;7.90;;;2.80;99.90;;;;;;4845025;29;20053;-79
2024/01/06 09:56:28;;;;;;;18.08;9.15;;;2.80;99.90;;;;;;4844954;29;20056;-79
2024/01/06 09:58:54;;;;;;;16.55;8.70;;;2.70;99.90;;;;;;4844883;29;20053;-79
2024/01/06 10:01:20;;;;;;;13.32;8.38;;;2.70;99.90;;;;;;4844883;29;20056;-80
2024/01/06 10:03:46;;;;;;;18.88;8.95;;;2.70;99.90;;;;;;4861319;29;20091;-79
2024/01/06 10:06:13;;;;;;;20.83;9.70;;;2.70;99.90;;;;;;4844650;29;20060;-79
2024/01/06 10:08:40;;;;;;;20.45;11.23;;;2.70;99.90;;;;;;4861429;29;20050;-79
2024/01/06 10:11:12;;;;;;;14.98;8.90;;;2.70;99.90;;;;;;4844719;29;20060;-79
2024/01/06 10:13:41;;;;;;;21.88;10.45;;;2.70;99.90;;;;;;4844733;29;20049;-79
2024/01/06 10:16:07;;;;;;;19.35;9.90;;;2.70;99.90;;;;;;4844693;29;20514;-79
2024/01/06 10:18:35;;;;;;;14.77;7.65;;;2.70;99.90;;;;;;4844780;29;20082;-79
2024/01/06 10:21:05;;;;;;;15.55;9.57;;;2.70;99.90;;;;;;4861361;29;20116;-80
2024/01/06 10:23:32;;;;;;;16.92;8.70;;;2.70;99.90;;;;;;4844792;29;20060;-79
2024/01/06 10:25:57;;;;;;;13.25;7.10;;;2.70;99.90;;;;;;4861340;29;20053;-79
2024/01/06 10:28:23;;;;;;;13.50;8.35;;;2.70;99.90;;;;;;4844551;29;20112;-79
2024/01/06 10:30:53;;;;;;;14.40;7.75;;;2.60;99.90;;;;;;4844536;29;20041;-79
2024/01/06 10:33:20;;;;;;;15.10;7.75;;;2.60;99.90;;;;;;4844761;29;20064;-79
2024/01/06 10:35:47;;;;;;;12.57;7.28;;;2.60;99.90;;;;;;4844639;29;20049;-79
2024/01/06 10:38:15;;;;;;;16.38;7.93;;;2.60;99.90;;;;;;4844610;29;20049;-79
2024/01/06 10:40:57;;;;;;;21.73;9.18;;;2.60;99.90;;;;;;4844309;29;20136;-79
2024/01/06 10:43:27;;;;;;;13.30;7.43;;;2.60;99.90;;;;;;4844249;29;20057;-79
2024/01/06 10:45:54;;;;;;;12.10;7.15;;;2.50;99.90;;;;;;4844559;29;20046;-79
2024/01/06 10:48:23;;;;;;;12.95;7.85;;;2.60;99.90;;;;;;4844539;29;20053;-79
2024/01/06 10:50:50;;;;;;;12.93;7.53;;;2.60;99.90;;;;;;4844330;29;20053;-79
2024/01/06 10:53:18;;;;;;;13.98;7.18;;;2.50;99.90;;;;;;4844255;29;20528;-78
2024/01/06 10:55:45;;;;;;;11.93;6.32;;;2.60;99.90;;;;;;4844447;29;20371;-79
2024/01/06 10:58:16;;;;;;;13.35;6.72;;;2.60;99.90;;;;;;4844497;29;20485;-79
2024/01/06 11:00:42;;;;;;;15.05;7.95;;;2.60;99.90;;;;;;4844245;29;20046;-78
2024/01/06 11:03:10;;;;;;;18.48;9.20;;;2.60;99.90;;;;;;4844187;29;20053;-79
2024/01/06 11:05:40;;;;;;;13.60;7.60;;;2.60;99.90;;;;;;4844292;29;20160;-79
2024/01/06 11:08:06;;;;;;;12.82;7.78;;;2.60;99.90;;;;;;4844442;29;20064;-79
2024/01/06 11:10:32;;;;;;;13.48;7.03;;;2.60;99.90;;;;;;4861089;29;20120;-79
2024/01/06 11:13:17;;;;;;;15.05;8.70;;;2.50;99.90;;;;;;4860838;29;20046;-79
2024/01/06 11:15:45;;;;;;;13.90;7.25;;;2.50;99.90;;;;;;4844342;29;20113;-79
2024/01/06 11:18:35;;;;;;;17.90;7.60;;;2.50;99.90;;;;;;4846133;29;20137;-79
2024/01/06 11:21:17;;;;;;;14.93;7.35;;;2.50;99.90;;;;;;4864296;29;20473;-79
2024/01/06 11:23:43;;;;;;;12.60;7.15;;;2.50;99.90;;;;;;4864581;29;20092;-79
2024/01/06 11:26:09;;;;;;;15.88;8.50;;;2.50;99.90;;;;;;4847779;29;20080;-79
2024/01/06 11:28:48;;;;;;;14.35;7.80;;;2.50;99.90;;;;;;4847826;29;20050;-79
2024/01/06 11:31:13;;;;;;;13.90;7.93;;;2.50;99.90;;;;;;4847533;29;20387;-79
2024/01/06 11:33:49;;;;;;;15.60;7.65;;;2.50;99.90;;;;;;4847494;29;20047;-79
2024/01/06 11:36:16;;;;;;;13.63;7.57;;;2.50;99.90;;;;;;4847688;29;20206;-79
2024/01/06 11:38:41;;;;;;;17.48;7.45;;;2.50;99.90;;;;;;4847599;29;20045;-79
2024/01/06 11:41:30;;;;;;;12.80;7.30;;;2.50;99.90;;;;;;4847378;29;20516;-79
2024/01/06 11:43:56;;;;;;;13.57;7.50;;;2.50;99.90;;;;;;4847122;29;20057;-79
2024/01/06 11:46:21;;;;;;;15.48;8.77;;;2.40;99.90;;;;;;4864172;29;20093;-79
2024/01/06 11:48:51;;;;;;;20.00;8.63;;;2.40;99.90;;;;;;4863733;29;20517;-78
2024/01/06 11:51:18;;;;;;;14.50;6.60;;;2.50;99.90;;;;;;4847514;29;20065;-80
2024/01/06 11:53:45;;;;;;;15.82;7.55;;;2.50;99.90;;;;;;4863691;29;20060;-80
2024/01/06 11:56:11;;;;;;;14.30;7.90;;;2.40;99.90;;;;;;4847172;29;20045;-76
2024/01/06 11:58:40;;;;;;;13.80;6.40;;;2.40;99.90;;;;;;4863455;29;20059;-79
2024/01/06 12:01:05;;;;;;;16.73;7.82;;;2.50;99.90;;;;;;4847240;29;20045;-78
2024/01/06 12:03:33;;;;;;;14.40;6.85;;;2.50;99.90;;;;;;4846986;29;20391;-78
2024/01/06 12:06:02;;;;;;;12.82;7.40;;;2.40;99.90;;;;;;4846915;29;20517;-79
2024/01/06 12:08:28;;;;;;;12.77;6.50;;;2.40;99.90;;;;;;4847123;29;20058;-77
2024/01/06 12:11:04;;;;;;;12.02;6.85;;;2.40;99.90;;;;;;4863545;29;20049;-77
2024/01/06 12:13:30;;;;;;;10.93;5.75;;;2.40;99.90;;;;;;4847059;29;20482;-77
2024/01/06 12:15:56;;;;;;;12.65;6.10;;;2.40;99.90;;;;;;4847021;29;20053;-77
2024/01/06 12:18:24;;;;;;;15.88;7.63;;;2.30;99.90;;;;;;4846890;29;20072;-77
2024/01/06 12:20:51;;;;;;;14.15;6.13;;;2.40;99.90;;;;;;4846761;29;20049;-77
2024/01/06 12:23:28;;;;;;;13.15;7.35;;;2.40;99.90;;;;;;4846954;29;20226;-78
2024/01/06 12:25:55;;;;;;;11.85;5.90;;;2.30;99.90;;;;;;4846495;29;20102;-77
2024/01/06 12:28:20;;;;;;;12.02;5.78;;;2.30;99.90;;;;;;4846683;29;20053;-77
2024/01/06 12:30:46;;;;;;;11.95;6.38;;;2.30;99.90;;;;;;4846782;29;20081;-77
2024/01/06 12:33:13;;;;;;;13.38;6.90;;;2.30;99.90;;;;;;4863104;29;20513;-77
2024/01/06 12:35:39;;;;;;;11.23;5.97;;;2.20;99.90;;;;;;4862903;29;20059;-76
2024/01/06 12:38:07;;;;;;;13.20;6.32;;;2.30;99.90;;;;;;4846549;29;20045;-76
2024/01/06 12:40:36;;;;;;;15.65;7.65;;;2.30;99.90;;;;;;4846275;29;20049;-76
2024/01/06 12:43:03;;;;;;;14.35;6.65;;;2.30;99.90;;;;;;4846512;29;20072;-76
2024/01/06 12:45:28;;;;;;;12.13;6.28;;;2.30;99.90;;;;;;4846217;29;20057;-75